createdAt,value
2023-01-30T00:02:16.434Z,23.95
2023-01-30T00:06:18.603Z,26.42
2023-01-30T00:10:20.425Z,24.35
2023-01-30T00:14:22.810Z,25.50
2023-01-30T00:18:24.510Z,22.25
2023-01-30T00:22:26.150Z,20.65
2023-01-30T00:26:27.895Z,22.45
2023-01-30T00:30:30.144Z,28.30
2023-01-30T00:34:32.851Z,25.65
2023-01-30T00:38:34.621Z,29.27
2023-01-30T00:42:54.695Z,31.25
2023-01-30T00:47:05.386Z,25.35
2023-01-30T00:51:07.260Z,22.52
2023-01-30T00:55:09.205Z,23.80
2023-01-30T00:59:10.740Z,25.93
2023-01-30T01:03:12.959Z,24.40
2023-01-30T01:07:15.277Z,22.63
2023-01-30T01:11:24.639Z,26.87
2023-01-30T01:15:27.248Z,25.42
2023-01-30T01:19:28.949Z,26.65
2023-01-30T01:23:30.522Z,25.70
2023-01-30T01:27:32.360Z,28.88
2023-01-30T01:31:34.050Z,29.52
2023-01-30T01:35:40.920Z,29.87
2023-01-30T01:40:00.907Z,26.48
2023-01-30T01:44:11.258Z,25.95
2023-01-30T01:48:26.321Z,25.63
2023-01-30T01:52:28.975Z,26.92
2023-01-30T01:56:34.580Z,28.02
2023-01-30T02:00:36.342Z,22.88
2023-01-30T02:05:01.619Z,24.45
2023-01-30T02:09:08.565Z,23.00
2023-01-30T02:13:10.120Z,23.15
2023-01-30T02:17:11.779Z,24.10
2023-01-30T02:21:34.750Z,21.98
2023-01-30T02:26:12.837Z,29.27
2023-01-30T02:30:36.386Z,26.27
2023-01-30T02:35:05.569Z,22.75
2023-01-30T02:39:25.072Z,23.25
2023-01-30T02:43:37.833Z,21.00
2023-01-30T02:47:56.839Z,22.33
2023-01-30T02:52:00.878Z,26.92
2023-01-30T02:56:03.780Z,23.48
2023-01-30T03:00:07.786Z,26.45
2023-01-30T03:04:26.734Z,25.80
2023-01-30T03:08:41.430Z,19.65
2023-01-30T03:12:55.291Z,26.33
2023-01-30T03:17:01.236Z,22.70
2023-01-30T03:21:07.549Z,27.60
2023-01-30T03:25:10.039Z,23.23
2023-01-30T03:29:11.691Z,24.05
2023-01-30T03:33:14.263Z,18.63
2023-01-30T03:37:21.632Z,23.20
2023-01-30T03:41:23.396Z,21.00
2023-01-30T03:45:25.046Z,24.23
2023-01-30T03:49:27.618Z,24.83
2023-01-30T03:53:29.976Z,27.23
2023-01-30T03:57:31.572Z,25.60
2023-01-30T04:05:36.984Z,22.00
2023-01-30T04:09:41.878Z,27.58
2023-01-30T04:13:45.550Z,27.92
2023-01-30T04:17:47.988Z,25.37
2023-01-30T04:22:08.192Z,26.52
2023-01-30T04:26:11.292Z,22.50
2023-01-30T04:30:15.613Z,23.67
2023-01-30T04:34:17.809Z,24.75
2023-01-30T04:38:20.259Z,25.23
2023-01-30T04:42:22.168Z,25.17
2023-01-30T04:46:43.767Z,28.73
2023-01-30T04:50:49.709Z,26.10
2023-01-30T04:54:51.308Z,28.02
2023-01-30T04:58:53.070Z,28.65
2023-01-30T05:02:58.241Z,23.45
2023-01-30T05:06:59.834Z,27.60
2023-01-30T05:11:01.499Z,25.65
2023-01-30T05:15:03.185Z,26.83
2023-01-30T05:19:04.912Z,30.35
2023-01-30T05:23:06.467Z,27.65
2023-01-30T05:27:08.029Z,26.33
2023-01-30T05:31:14.116Z,28.73
2023-01-30T05:35:16.220Z,22.23
2023-01-30T05:39:18.151Z,29.77
2023-01-30T05:43:19.722Z,34.15
2023-01-30T05:47:21.286Z,24.90
2023-01-30T05:51:25.480Z,29.80
2023-01-30T05:55:27.025Z,21.92
2023-01-30T05:59:28.661Z,27.67
2023-01-30T06:03:30.345Z,24.45
2023-01-30T06:07:32.305Z,25.17
2023-01-30T06:11:33.948Z,29.60
2023-01-30T06:15:36.942Z,25.67
2023-01-30T06:19:38.497Z,25.90
2023-01-30T06:23:40.090Z,23.10
2023-01-30T06:27:43.351Z,23.58
2023-01-30T06:31:45.069Z,27.75
2023-01-30T06:35:49.765Z,22.17
2023-01-30T06:39:51.343Z,24.10
2023-01-30T06:43:52.985Z,24.88
2023-01-30T06:47:55.899Z,20.13
2023-01-30T06:51:57.673Z,25.50
2023-01-30T06:56:01.177Z,19.98
2023-01-30T07:00:11.204Z,23.23
2023-01-30T07:04:12.835Z,22.48
2023-01-30T07:08:15.854Z,20.23
2023-01-30T07:12:17.482Z,23.58
2023-01-30T07:16:19.121Z,24.17
2023-01-30T07:20:20.721Z,20.90
2023-01-30T07:24:43.373Z,24.00
2023-01-30T07:28:46.196Z,22.80
2023-01-30T07:32:54.698Z,27.25
2023-01-30T07:36:56.298Z,26.17
2023-01-30T07:40:58.831Z,23.13
2023-01-30T07:45:00.368Z,20.50
2023-01-30T07:49:02.517Z,23.30
2023-01-30T07:53:05.859Z,18.92
2023-01-30T07:57:07.434Z,19.48
2023-01-30T08:01:09.138Z,19.70
2023-01-30T08:05:10.709Z,19.92
2023-01-30T08:09:13.261Z,21.40
2023-01-30T08:17:16.649Z,17.60
2023-01-30T08:21:18.824Z,15.40
2023-01-30T08:25:22.997Z,18.70
2023-01-30T08:29:24.538Z,19.90
2023-01-30T08:33:26.161Z,16.70
2023-01-30T08:37:27.731Z,19.35
2023-01-30T08:41:29.349Z,20.02
2023-01-30T08:45:31.682Z,20.48
2023-01-30T08:49:33.292Z,23.25
2023-01-30T08:53:36.461Z,17.95
2023-01-30T08:57:52.320Z,19.58
2023-01-30T09:02:06.694Z,18.45
2023-01-30T09:06:40.854Z,19.13
2023-01-30T09:11:39.780Z,20.00
2023-01-30T09:21:04.818Z,22.73
2023-01-30T09:25:07.170Z,18.10
2023-01-30T09:29:09.092Z,16.80
2023-01-30T09:33:10.705Z,19.60
2023-01-30T09:37:12.248Z,16.25
2023-01-30T09:41:57.009Z,17.17
2023-01-30T09:46:12.712Z,17.67
2023-01-30T09:50:47.755Z,16.23
2023-01-30T09:55:00.861Z,15.60
2023-01-30T09:59:04.734Z,14.55
2023-01-30T10:03:15.201Z,16.55
2023-01-30T10:07:21.269Z,16.70
2023-01-30T10:11:47.960Z,14.73
2023-01-30T10:16:03.927Z,13.70
2023-01-30T10:20:37.381Z,13.00
2023-01-30T10:24:52.106Z,16.35
2023-01-30T10:29:08.548Z,15.85
2023-01-30T10:33:25.277Z,21.35
2023-01-30T10:37:32.610Z,18.58
2023-01-30T10:41:45.609Z,11.38
2023-01-30T10:50:17.938Z,10.45
2023-01-30T10:54:27.120Z,17.63
2023-01-30T10:58:53.395Z,9.95
2023-01-30T11:03:11.848Z,7.35
2023-01-30T11:07:13.916Z,7.13
2023-01-30T11:11:25.313Z,6.57
2023-01-30T11:15:44.942Z,6.22
2023-01-30T11:19:55.671Z,7.93
2023-01-30T11:24:03.348Z,6.38
2023-01-30T11:28:06.412Z,6.78
2023-01-30T11:32:27.154Z,6.18
2023-01-30T11:36:33.459Z,6.93
2023-01-30T11:40:38.952Z,6.65
2023-01-30T11:44:42.447Z,8.02
2023-01-30T11:49:02.876Z,10.52
2023-01-30T11:53:34.347Z,7.82
2023-01-30T11:57:42.035Z,6.32
2023-01-30T12:01:44.893Z,6.40
2023-01-30T12:09:50.591Z,4.23
2023-01-30T12:13:55.276Z,7.20
2023-01-30T12:18:25.543Z,4.60
2023-01-30T12:22:59.548Z,5.10
2023-01-30T12:27:39.362Z,4.97
2023-01-30T12:31:47.901Z,4.68
2023-01-30T12:36:27.631Z,4.03
2023-01-30T12:40:47.336Z,6.05
2023-01-30T12:45:13.438Z,5.40
2023-01-30T12:49:33.914Z,6.50
2023-01-30T12:53:35.621Z,4.28
2023-01-30T12:57:46.880Z,4.97
2023-01-30T13:02:07.343Z,3.95
2023-01-30T13:06:26.322Z,4.00
2023-01-30T13:10:37.931Z,4.22
2023-01-30T13:14:48.668Z,3.22
2023-01-30T13:19:23.064Z,3.05
2023-01-30T13:23:57.458Z,3.50
2023-01-30T13:28:04.525Z,3.45
2023-01-30T13:32:14.970Z,2.63
2023-01-30T13:36:39.914Z,4.70
2023-01-30T13:40:44.224Z,5.60
2023-01-30T13:44:46.649Z,4.03
2023-01-30T13:49:07.046Z,5.65
2023-01-30T13:53:22.696Z,4.50
2023-01-30T13:57:40.952Z,5.65
2023-01-30T14:02:03.789Z,5.57
2023-01-30T14:06:10.803Z,4.80
2023-01-30T14:10:20.689Z,5.60
2023-01-30T14:14:31.822Z,6.30
2023-01-30T14:18:36.283Z,6.97
2023-01-30T14:22:55.755Z,6.80
2023-01-30T14:27:01.726Z,6.32
2023-01-30T14:31:03.735Z,8.50
2023-01-30T14:35:05.600Z,7.80
2023-01-30T14:39:40.610Z,10.43
2023-01-30T14:43:42.395Z,10.43
2023-01-30T14:47:46.534Z,10.18
2023-01-30T14:51:50.495Z,8.70
2023-01-30T14:56:01.423Z,7.45
2023-01-30T15:00:18.187Z,9.88
2023-01-30T15:04:21.189Z,9.93
2023-01-30T15:08:26.595Z,7.22
2023-01-30T15:12:30.850Z,11.70
2023-01-30T15:16:38.304Z,9.23
2023-01-30T15:21:00.206Z,11.65
2023-01-30T15:25:27.558Z,9.02
2023-01-30T15:30:00.626Z,12.23
2023-01-30T15:34:02.183Z,11.55
2023-01-30T15:38:03.768Z,16.25
2023-01-30T15:42:08.114Z,26.98
2023-01-30T15:46:21.949Z,27.00
2023-01-30T15:50:23.642Z,25.45
2023-01-30T15:54:25.329Z,25.48
2023-01-30T15:58:28.260Z,33.78
2023-01-30T16:06:35.830Z,28.45
2023-01-30T16:10:44.459Z,27.45
2023-01-30T16:14:46.069Z,20.42
2023-01-30T16:18:50.837Z,13.85
2023-01-30T16:22:53.346Z,12.52
2023-01-30T16:27:01.750Z,13.63
2023-01-30T16:31:06.970Z,12.90
2023-01-30T16:35:27.844Z,13.93
2023-01-30T16:39:36.064Z,11.73
2023-01-30T16:43:44.354Z,11.95
2023-01-30T16:47:45.944Z,14.95
2023-01-30T16:51:49.288Z,10.25
2023-01-30T16:55:58.922Z,11.82
2023-01-30T17:00:14.592Z,11.80
2023-01-30T17:04:21.367Z,10.90
2023-01-30T17:08:49.641Z,8.93
2023-01-30T17:12:53.167Z,12.30
2023-01-30T17:17:09.945Z,19.02
2023-01-30T17:21:13.660Z,19.35
2023-01-30T17:25:31.660Z,24.63
2023-01-30T17:29:42.479Z,9.60
2023-01-30T17:33:44.692Z,9.93
2023-01-30T17:37:59.633Z,7.35
2023-01-30T17:42:09.388Z,10.50
2023-01-30T17:46:12.889Z,10.20
2023-01-30T17:50:14.714Z,11.00
2023-01-30T17:54:17.088Z,10.35
2023-01-30T17:58:19.286Z,10.15
2023-01-30T18:02:20.886Z,10.60
2023-01-30T18:06:22.424Z,12.57
2023-01-30T18:10:24.378Z,9.70
2023-01-30T18:14:25.942Z,11.05
2023-01-30T18:18:27.572Z,12.32
2023-01-30T18:22:29.118Z,12.02
2023-01-30T18:26:30.794Z,22.13
2023-01-30T18:30:32.422Z,17.08
2023-01-30T18:34:34.041Z,14.10
2023-01-30T18:38:36.423Z,12.25
2023-01-30T18:42:37.969Z,14.25
2023-01-30T18:46:39.576Z,15.20
2023-01-30T18:50:41.215Z,13.25
2023-01-30T18:54:43.301Z,13.35
2023-01-30T18:58:45.033Z,13.47
2023-01-30T19:02:53.685Z,14.52
2023-01-30T19:06:55.343Z,17.48
2023-01-30T19:11:24.588Z,16.67
2023-01-30T19:15:26.239Z,12.75
2023-01-30T19:19:28.260Z,16.83
2023-01-30T19:23:31.018Z,10.23
2023-01-30T19:27:36.353Z,11.13
2023-01-30T19:31:38.247Z,10.80
2023-01-30T19:35:42.395Z,10.10
2023-01-30T19:39:44.037Z,9.13
2023-01-30T19:43:45.961Z,13.48
2023-01-30T19:47:47.641Z,9.23
2023-01-30T19:51:49.312Z,13.23
2023-01-30T19:55:51.792Z,13.95
2023-01-30T19:59:53.413Z,12.63
2023-01-30T20:03:55.563Z,16.85
2023-01-30T20:07:57.148Z,11.53
2023-01-30T20:11:58.714Z,23.58
2023-01-30T20:16:06.131Z,23.58
2023-01-30T20:20:10.309Z,30.17
2023-01-30T20:24:13.697Z,29.02
2023-01-30T20:28:15.329Z,28.63
2023-01-30T20:32:16.858Z,30.75
2023-01-30T20:36:19.792Z,28.25
2023-01-30T20:44:24.467Z,24.45
2023-01-30T20:52:29.526Z,17.13
2023-01-30T20:56:43.165Z,23.90
2023-01-30T21:00:44.911Z,27.60
2023-01-30T21:04:46.496Z,36.00
2023-01-30T21:08:48.118Z,40.58
2023-01-30T21:12:49.736Z,38.60
2023-01-30T21:16:51.374Z,36.72
2023-01-30T21:20:52.948Z,33.35
2023-01-30T21:24:54.674Z,22.83
2023-01-30T21:28:56.374Z,24.88
2023-01-30T21:32:58.542Z,27.30
2023-01-30T21:37:18.995Z,34.83
2023-01-30T21:41:43.511Z,37.85
2023-01-30T21:45:45.409Z,39.58
2023-01-30T21:49:47.032Z,50.63
2023-01-30T21:53:49.386Z,40.03
2023-01-30T21:57:52.393Z,29.25
2023-01-30T22:01:53.956Z,27.05
2023-01-30T22:05:55.720Z,23.33
2023-01-30T22:09:57.566Z,35.13
2023-01-30T22:14:20.719Z,30.27
2023-01-30T22:22:24.728Z,18.30
2023-01-30T22:26:26.799Z,15.60
2023-01-30T22:30:28.444Z,14.53
2023-01-30T22:34:30.061Z,14.90
2023-01-30T22:38:31.857Z,25.77
2023-01-30T22:42:33.405Z,9.60
2023-01-30T22:46:37.581Z,12.23
2023-01-30T22:50:39.315Z,15.75
2023-01-30T22:54:40.971Z,22.80
2023-01-30T22:58:43.769Z,25.73
2023-01-30T23:06:48.332Z,25.65
2023-01-30T23:14:51.460Z,16.65
2023-01-30T23:18:56.658Z,15.05
2023-01-30T23:22:58.198Z,16.20
2023-01-30T23:27:03.192Z,16.02
2023-01-30T23:31:10.567Z,23.42
2023-01-30T23:35:12.176Z,21.58
2023-01-30T23:39:14.351Z,33.75
2023-01-30T23:43:16.544Z,30.20
2023-01-30T23:47:18.129Z,21.10
2023-01-30T23:51:21.273Z,34.25
2023-01-30T23:55:22.824Z,28.50
2023-01-30T23:59:24.456Z,26.50
